Time;durP1;ratioP1;P1;durP2;ratioP2;P2;SDS_P1;SDS_P2;PMS_P1;PMS_P2;Temp;Humidity;BMP_temperature;BMP_pressure;BME280_temperature;BME280_humidity;BME280_pressure;Samples;Min_cycle;Max_cycle;Signal;HPM_P1;HPM_P2
2021/10/12 00:01:49;;;;;;;7.67;5.00;;;;;;;22.89;52.68;100580.45;1751294;79;20918;-47
2021/10/12 00:04:15;;;;;;;6.80;4.62;;;;;;;22.87;52.67;100574.44;1739712;79;21556;-49
2021/10/12 00:06:42;;;;;;;7.95;5.33;;;;;;;22.87;52.68;100576.40;1745491;80;21161;-47
2021/10/12 00:09:07;;;;;;;7.90;5.50;;;;;;;22.86;52.70;100571.99;1757121;79;21049;-47
2021/10/12 00:11:34;;;;;;;7.25;5.00;;;;;;;22.86;52.71;100571.99;1752137;79;20863;-47
2021/10/12 00:14:00;;;;;;;5.72;4.70;;;;;;;22.87;52.72;100568.08;1749868;79;21069;-47
2021/10/12 00:16:26;;;;;;;7.28;5.33;;;;;;;22.87;52.73;100573.63;1751684;79;21157;-46
2021/10/12 00:18:52;;;;;;;7.47;5.28;;;;;;;22.85;52.72;100579.50;1751439;80;20917;-48
2021/10/12 00:21:18;;;;;;;7.05;4.87;;;;;;;22.84;52.74;100562.61;1750184;79;21235;-49
2021/10/12 00:23:44;;;;;;;6.90;5.12;;;;;;;22.83;52.72;100554.05;1733862;80;21069;-47
2021/10/12 00:26:10;;;;;;;7.55;5.10;;;;;;;22.83;52.73;100547.71;1753460;80;20897;-48
2021/10/12 00:28:36;;;;;;;7.85;5.47;;;;;;;22.82;52.74;100537.77;1755811;79;21348;-47
2021/10/12 00:31:03;;;;;;;6.42;4.92;;;;;;;22.81;52.73;100531.41;1754292;80;21516;-47
2021/10/12 00:33:29;;;;;;;7.05;5.15;;;;;;;22.81;52.73;100525.03;1752948;79;21021;-48
2021/10/12 00:35:55;;;;;;;5.47;4.12;;;;;;;22.80;52.75;100524.22;1700387;79;21526;-50
2021/10/12 00:38:22;;;;;;;7.65;5.25;;;;;;;22.80;52.75;100520.63;1761592;78;21022;-49
2021/10/12 00:40:48;;;;;;;5.95;4.72;;;;;;;22.80;52.76;100524.22;1755576;80;21399;-50
2021/10/12 00:43:14;;;;;;;6.78;5.08;;;;;;;22.78;52.76;100522.38;1759824;79;21076;-48
2021/10/12 00:45:41;;;;;;;7.47;5.05;;;;;;;22.78;52.72;100512.67;1746080;79;21649;-48
2021/10/12 00:48:09;;;;;;;8.18;5.12;;;;;;;22.77;52.73;100519.36;1766598;78;21012;-49
2021/10/12 00:50:37;;;;;;;7.33;5.28;;;;;;;22.77;52.75;100509.66;1770971;79;21054;-48
2021/10/12 00:53:04;;;;;;;7.50;4.92;;;;;;;22.75;52.76;100507.20;1768367;78;22084;-51
2021/10/12 00:55:30;;;;;;;6.70;4.70;;;;;;;22.75;52.76;100502.23;1762544;79;21465;-47
2021/10/12 00:57:56;;;;;;;6.10;4.72;;;;;;;22.74;52.77;100493.09;1760902;79;21228;-46
2021/10/12 01:00:23;;;;;;;9.18;5.85;;;;;;;22.73;52.79;100497.05;1760174;78;21110;-48
2021/10/12 01:02:49;;;;;;;6.37;4.70;;;;;;;22.73;52.80;100501.20;1748662;79;21615;-48
2021/10/12 01:05:15;;;;;;;6.33;4.97;;;;;;;22.73;52.77;100492.89;1757177;79;21220;-48
2021/10/12 01:07:41;;;;;;;6.28;5.05;;;;;;;22.71;52.78;100493.78;1742575;80;21606;-47
2021/10/12 01:10:09;;;;;;;7.33;5.12;;;;;;;22.72;52.76;100488.48;1755095;79;21439;-47
2021/10/12 01:12:36;;;;;;;6.55;5.12;;;;;;;22.71;52.78;100489.62;1757803;79;21059;-48
2021/10/12 01:15:07;;;;;;;7.90;5.33;;;;;;;22.71;52.75;100487.42;1753567;78;20981;-47
2021/10/12 01:17:35;;;;;;;7.00;4.65;;;;;;;22.71;52.74;100488.81;1764272;79;21173;-47
2021/10/12 01:20:03;;;;;;;7.50;5.28;;;;;;;22.67;52.75;100478.95;1760015;79;21089;-47
2021/10/12 01:22:30;;;;;;;6.72;4.47;;;;;;;22.68;52.74;100475.60;1766841;78;21161;-49
2021/10/12 01:24:56;;;;;;;5.87;4.30;;;;;;;22.67;52.75;100473.40;1754102;79;20962;-47
2021/10/12 01:27:22;;;;;;;7.35;5.25;;;;;;;22.66;52.76;100463.45;1750181;79;21575;-47
2021/10/12 01:29:49;;;;;;;6.90;5.00;;;;;;;22.66;52.72;100462.67;1756727;79;21362;-50
2021/10/12 01:32:15;;;;;;;6.22;4.65;;;;;;;22.65;52.72;100469.36;1758444;79;21022;-50
2021/10/12 01:34:42;;;;;;;7.83;5.30;;;;;;;22.64;52.72;100462.99;1760627;79;21152;-47
2021/10/12 01:37:08;;;;;;;7.12;5.00;;;;;;;22.64;52.72;100460.80;1745484;80;21567;-48
2021/10/12 01:39:34;;;;;;;7.87;4.78;;;;;;;22.64;52.73;100459.41;1744382;80;21098;-48
2021/10/12 01:42:00;;;;;;;5.97;4.58;;;;;;;22.63;52.72;100456.39;1750021;79;21151;-49
2021/10/12 01:44:26;;;;;;;6.75;4.83;;;;;;;22.61;52.73;100452.59;1754653;79;22272;-47
2021/10/12 01:46:52;;;;;;;5.97;4.80;;;;;;;22.61;52.72;100447.05;1752669;80;20920;-50
2021/10/12 01:49:18;;;;;;;6.37;4.55;;;;;;;22.63;52.72;100443.91;1757702;79;20938;-48
2021/10/12 01:51:44;;;;;;;6.00;4.00;;;;;;;22.60;52.70;100440.44;1769071;78;20981;-48
2021/10/12 01:54:21;;;;;;;7.05;5.03;;;;;;;22.60;52.70;100440.44;1754501;80;21268;-48
2021/10/12 01:56:48;;;;;;;6.72;5.10;;;;;;;22.60;52.69;100437.67;1755340;78;21409;-46
2021/10/12 01:59:14;;;;;;;6.33;4.58;;;;;;;22.60;52.69;100440.44;1750605;79;21031;-48
2021/10/12 02:01:40;;;;;;;6.22;4.35;;;;;;;22.58;52.69;100432.45;1756702;78;21068;-49
2021/10/12 02:04:07;;;;;;;6.53;4.60;;;;;;;22.59;52.68;100437.42;1743498;80;22402;-49
2021/10/12 02:06:34;;;;;;;6.55;4.70;;;;;;;22.58;52.68;100438.57;1750624;80;21367;-50
2021/10/12 02:09:00;;;;;;;6.78;4.95;;;;;;;22.57;52.69;100441.95;1754694;80;21495;-46
2021/10/12 02:11:26;;;;;;;6.05;4.40;;;;;;;22.57;52.68;100454.42;1743736;80;21136;-47
2021/10/12 02:13:52;;;;;;;5.65;4.35;;;;;;;22.56;52.66;100452.80;1751487;79;21022;-46
2021/10/12 02:16:18;;;;;;;6.30;5.00;;;;;;;22.55;52.65;100448.39;1752731;79;20946;-49
2021/10/12 02:18:44;;;;;;;7.10;5.35;;;;;;;22.55;52.66;100447.58;1753225;79;21882;-49
2021/10/12 02:21:10;;;;;;;5.70;4.00;;;;;;;22.54;52.66;100448.14;1743892;80;20974;-49
2021/10/12 02:23:36;;;;;;;5.47;4.25;;;;;;;22.55;52.64;100450.34;1737073;80;20930;-48
2021/10/12 02:26:04;;;;;;;6.50;4.97;;;;;;;22.54;52.65;100459.23;1747911;80;20901;-47
2021/10/12 02:28:30;;;;;;;5.12;4.37;;;;;;;22.54;52.64;100452.30;1757672;79;21030;-47
2021/10/12 02:30:56;;;;;;;5.70;4.50;;;;;;;22.54;52.63;100452.30;1760743;79;21271;-48
2021/10/12 02:33:22;;;;;;;8.18;5.17;;;;;;;22.53;52.64;100445.12;1755378;79;21120;-47
2021/10/12 02:35:48;;;;;;;5.55;4.35;;;;;;;22.53;52.62;100434.64;1758148;79;21544;-50
2021/10/12 02:38:14;;;;;;;5.22;4.28;;;;;;;22.52;52.61;100429.67;1753918;79;20998;-46
2021/10/12 02:40:40;;;;;;;7.28;4.87;;;;;;;22.51;52.61;100441.91;1762931;79;20972;-46
2021/10/12 02:43:06;;;;;;;6.42;4.33;;;;;;;22.51;52.62;100446.63;1748683;79;21493;-46
2021/10/12 02:45:32;;;;;;;5.87;4.00;;;;;;;22.51;52.61;100443.29;1750729;80;20907;-48
2021/10/12 02:47:58;;;;;;;5.90;4.70;;;;;;;22.51;52.62;100444.67;1748518;79;20909;-44
2021/10/12 02:50:24;;;;;;;5.83;4.60;;;;;;;22.51;52.60;100444.67;1745226;79;20934;-47
2021/10/12 02:52:50;;;;;;;5.65;4.40;;;;;;;22.50;52.59;100447.20;1751848;79;21064;-48
2021/10/12 02:55:16;;;;;;;5.75;4.10;;;;;;;22.49;52.60;100443.41;1746981;79;21242;-46
2021/10/12 02:57:42;;;;;;;6.05;4.37;;;;;;;22.48;52.60;100435.66;1750554;79;21566;-47
2021/10/12 03:00:10;;;;;;;6.80;4.50;;;;;;;22.48;52.60;100432.07;1757008;79;20928;-49
2021/10/12 03:02:36;;;;;;;7.30;4.30;;;;;;;22.47;52.58;100428.48;1751298;79;21053;-48
2021/10/12 03:05:03;;;;;;;5.15;3.95;;;;;;;22.47;52.61;100425.72;1745166;79;21005;-51
2021/10/12 03:07:29;;;;;;;5.30;4.12;;;;;;;22.49;52.61;100432.31;1750430;79;21358;-48
2021/10/12 03:09:55;;;;;;;5.40;4.00;;;;;;;22.49;52.58;100427.56;1758584;79;21016;-50
2021/10/12 03:12:21;;;;;;;5.05;3.92;;;;;;;22.52;52.60;100426.09;1752261;78;20998;-51
2021/10/12 03:14:47;;;;;;;4.00;3.15;;;;;;;22.54;52.57;100423.77;1757398;79;21528;-47
2021/10/12 03:17:13;;;;;;;4.72;3.42;;;;;;;22.56;52.51;100420.09;1760532;79;20918;-48
2021/10/12 03:19:39;;;;;;;5.20;3.95;;;;;;;22.57;52.48;100419.77;1753912;79;21431;-46
2021/10/12 03:22:13;;;;;;;5.10;3.95;;;;;;;22.59;52.44;100425.77;1763307;79;20976;-48
2021/10/12 03:24:39;;;;;;;5.78;3.58;;;;;;;22.61;52.39;100426.25;1751168;80;21124;-47
2021/10/12 03:27:06;;;;;;;3.72;3.02;;;;;;;22.64;52.34;100426.95;1743896;80;21515;-47
2021/10/12 03:29:32;;;;;;;4.17;2.95;;;;;;;22.68;52.28;100423.73;1748949;79;21172;-49
2021/10/12 03:32:02;;;;;;;6.55;3.10;;;;;;;22.71;52.25;100418.09;1755134;78;21105;-46
2021/10/12 03:34:28;;;;;;;5.28;3.60;;;;;;;22.73;52.18;100422.17;1755243;79;21067;-48
2021/10/12 03:36:55;;;;;;;5.97;3.80;;;;;;;22.74;52.16;100415.44;1754575;79;21009;-47
2021/10/12 03:39:22;;;;;;;4.75;3.42;;;;;;;22.76;52.11;100418.70;1745838;80;21090;-46
2021/10/12 03:41:50;;;;;;;4.30;3.00;;;;;;;22.76;52.09;100421.47;1751259;79;21464;-51
2021/10/12 03:44:17;;;;;;;4.17;2.83;;;;;;;22.79;52.09;100415.81;1751687;79;21543;-47
2021/10/12 03:46:43;;;;;;;3.83;2.75;;;;;;;22.82;52.08;100407.40;1723560;80;21196;-46
2021/10/12 03:49:09;;;;;;;3.37;2.52;;;;;;;22.84;52.05;100398.95;1699381;81;21567;-48
2021/10/12 03:51:35;;;;;;;3.35;2.25;;;;;;;22.86;52.02;100400.83;1717396;81;21109;-47
2021/10/12 03:54:01;;;;;;;4.10;2.87;;;;;;;22.88;52.00;100390.19;1705237;81;21108;-51
2021/10/12 03:56:28;;;;;;;4.03;2.65;;;;;;;22.91;51.99;100391.48;1714288;81;21644;-48
2021/10/12 03:58:54;;;;;;;4.08;2.80;;;;;;;22.91;51.95;100376.22;1719678;81;21026;-50
2021/10/12 04:01:21;;;;;;;4.62;3.17;;;;;;;22.92;51.96;100385.56;1696415;82;20977;-52
2021/10/12 04:03:48;;;;;;;2.90;2.52;;;;;;;22.93;51.94;100389.97;1709928;81;21102;-50
2021/10/12 04:06:16;;;;;;;3.98;2.75;;;;;;;22.94;51.97;100389.40;1713063;81;21074;-51
2021/10/12 04:08:42;;;;;;;5.28;3.10;;;;;;;22.95;51.97;100389.06;1724419;81;22182;-48
2021/10/12 04:11:09;;;;;;;3.60;2.47;;;;;;;22.96;51.97;100380.14;1720833;81;20996;-48
2021/10/12 04:13:36;;;;;;;3.15;2.33;;;;;;;22.98;51.95;100380.05;1727316;79;21556;-46
2021/10/12 04:16:02;;;;;;;3.72;2.65;;;;;;;23.00;51.95;100376.94;1758210;79;20975;-48
2021/10/12 04:18:28;;;;;;;4.33;3.00;;;;;;;23.01;51.94;100377.14;1754043;79;21551;-50
2021/10/12 04:20:54;;;;;;;3.25;2.47;;;;;;;23.01;51.94;100370.21;1742971;79;21336;-57
2021/10/12 04:23:20;;;;;;;4.05;2.80;;;;;;;23.01;51.97;100366.86;1754972;80;21021;-50
2021/10/12 04:25:47;;;;;;;4.20;2.50;;;;;;;23.02;51.99;100356.00;1755573;79;21569;-49
2021/10/12 04:28:13;;;;;;;3.35;2.55;;;;;;;23.05;51.99;100352.53;1766193;79;21216;-48
2021/10/12 04:30:44;;;;;;;4.50;2.58;;;;;;;23.06;52.01;100361.09;1726975;80;21102;-49
2021/10/12 04:33:11;;;;;;;3.08;2.37;;;;;;;23.08;51.99;100361.58;1747522;79;21277;-48
2021/10/12 04:35:37;;;;;;;3.10;2.42;;;;;;;23.10;51.98;100362.02;1748581;80;21429;-48
2021/10/12 04:38:03;;;;;;;2.83;2.45;;;;;;;23.11;51.97;100360.06;1760528;78;20991;-52
2021/10/12 04:40:30;;;;;;;6.37;3.55;;;;;;;23.13;51.99;100364.67;1758591;79;21084;-52
2021/10/12 04:42:58;;;;;;;12.53;5.72;;;;;;;23.14;52.03;100361.56;1748444;78;21019;-49
2021/10/12 04:45:24;;;;;;;19.98;7.62;;;;;;;23.15;52.03;100361.80;1743531;80;21510;-51
2021/10/12 04:47:52;;;;;;;13.22;7.28;;;;;;;23.16;52.05;100365.39;1753967;79;21147;-48
2021/10/12 04:50:18;;;;;;;11.63;6.35;;;;;;;23.15;52.06;100367.93;1748264;79;21006;-49
2021/10/12 04:52:45;;;;;;;20.55;9.35;;;;;;;23.15;52.03;100367.36;1751266;78;21148;-49
2021/10/12 04:55:12;;;;;;;12.78;6.90;;;;;;;23.15;51.98;100364.58;1760004;79;21682;-48
2021/10/12 04:57:38;;;;;;;16.42;7.53;;;;;;;23.15;51.91;100360.42;1764963;79;21283;-48
2021/10/12 05:00:05;;;;;;;13.58;7.10;;;;;;;23.15;51.83;100354.05;1755077;79;21505;-48
2021/10/12 05:02:32;;;;;;;16.35;7.00;;;;;;;23.16;51.74;100355.11;1755505;79;21046;-54
2021/10/12 05:04:58;;;;;;;23.80;9.58;;;;;;;23.16;51.71;100355.11;1745644;80;21019;-48
2021/10/12 05:07:24;;;;;;;11.25;5.78;;;;;;;23.15;51.71;100353.48;1752624;79;21086;-48
2021/10/12 05:09:50;;;;;;;35.55;13.58;;;;;;;23.17;51.74;100347.56;1756269;79;21315;-48
2021/10/12 05:12:17;;;;;;;25.37;10.08;;;;;;;23.17;51.79;100346.99;1751099;79;21382;-52
2021/10/12 05:14:43;;;;;;;17.23;8.43;;;;;;;23.18;51.80;100347.23;1747652;79;21062;-49
2021/10/12 05:17:56;;;;;;;23.55;10.15;;;;;;;23.20;51.84;100361.59;1759227;79;21537;-47
2021/10/12 05:19:37;;;;;;;30.70;11.60;;;;;;;23.22;51.87;100364.00;1682924;81;21036;-51
2021/10/12 05:22:03;;;;;;;32.28;13.50;;;;;;;23.27;51.95;100371.28;1716632;81;21233;-54
2021/10/12 05:24:30;;;;;;;85.97;25.20;;;;;;;23.27;52.01;100379.04;1726677;81;21555;-52
2021/10/12 05:26:56;;;;;;;77.08;24.27;;;;;;;23.28;52.06;100364.02;1721455;81;20939;-54
2021/10/12 05:29:22;;;;;;;118.95;37.93;;;;;;;23.30;52.12;100360.90;1706164;81;20976;-54
2021/10/12 05:31:48;;;;;;;36.33;13.40;;;;;;;23.29;52.21;100351.76;1719763;81;21228;-53
2021/10/12 05:34:14;;;;;;;25.82;13.08;;;;;;;23.30;52.38;100354.74;1711003;81;21842;-57
2021/10/12 05:36:41;;;;;;;25.05;11.97;;;;;;;23.31;52.46;100354.17;1688756;82;21132;-52
2021/10/12 05:39:07;;;;;;;23.87;11.08;;;;;;;23.33;52.58;100360.20;1733654;80;21121;-49
2021/10/12 05:41:33;;;;;;;16.35;8.55;;;;;;;23.34;52.65;100354.89;1752485;80;20895;-49
2021/10/12 05:43:59;;;;;;;65.42;24.12;;;;;;;23.33;52.73;100362.40;1752106;79;21517;-49
2021/10/12 05:46:25;;;;;;;25.88;11.22;;;;;;;23.33;52.78;100369.34;1756836;80;22233;-49
2021/10/12 05:48:51;;;;;;;24.82;11.35;;;;;;;23.34;52.92;100369.55;1744572;79;21070;-47
2021/10/12 05:51:22;;;;;;;23.05;11.35;;;;;;;23.35;53.00;100372.56;1758792;79;21515;-48
2021/10/12 05:53:48;;;;;;;42.93;15.83;;;;;;;23.34;53.10;100375.09;1756650;78;21508;-46
2021/10/12 05:56:28;;;;;;;43.52;14.07;;;;;;;23.35;53.22;100370.36;1745543;80;21500;-46
2021/10/12 05:58:54;;;;;;;36.77;12.80;;;;;;;23.35;53.31;100371.17;1751534;79;21986;-50
2021/10/12 06:01:24;;;;;;;37.17;13.05;;;;;;;23.34;53.37;100377.88;1739744;80;21110;-46
2021/10/12 06:03:50;;;;;;;19.63;6.90;;;;;;;23.35;53.42;100380.08;1752763;79;21093;-46
2021/10/12 06:06:16;;;;;;;26.50;10.35;;;;;;;23.38;53.49;100371.08;1761149;79;20979;-50
2021/10/12 06:08:43;;;;;;;21.85;7.75;;;;;;;23.39;53.62;100363.77;1746362;80;21117;-47
2021/10/12 06:11:09;;;;;;;29.12;9.08;;;;;;;23.43;53.82;100373.05;1748115;79;21468;-48
2021/10/12 06:13:37;;;;;;;47.83;14.43;;;;;;;23.45;53.95;100365.78;1753171;80;21103;-48
2021/10/12 06:16:04;;;;;;;26.68;8.93;;;;;;;23.45;54.05;100369.37;1747275;79;21050;-47
2021/10/12 06:18:31;;;;;;;31.73;10.10;;;;;;;23.46;54.08;100364.62;1755302;79;21072;-47
2021/10/12 06:20:57;;;;;;;46.15;13.45;;;;;;;23.47;54.13;100373.17;1743750;80;21017;-49
2021/10/12 06:23:23;;;;;;;19.67;7.00;;;;;;;23.49;54.13;100368.09;1757195;80;21209;-48
2021/10/12 06:25:51;;;;;;;12.43;5.08;;;;;;;23.50;54.13;100364.16;1745703;80;21172;-48
2021/10/12 06:28:18;;;;;;;21.60;7.83;;;;;;;23.50;54.12;100358.03;1752505;79;21516;-52
2021/10/12 06:30:45;;;;;;;34.85;11.83;;;;;;;23.52;54.08;100355.70;1700330;81;21105;-49
2021/10/12 06:33:12;;;;;;;13.93;6.17;;;;;;;23.51;54.09;100354.66;1716737;81;21035;-52
2021/10/12 06:35:38;;;;;;;44.40;13.95;;;;;;;23.50;54.05;100355.84;1753194;79;22406;-51
2021/10/12 06:38:04;;;;;;;15.32;6.03;;;;;;;23.48;54.06;100358.13;1756878;79;20912;-49
2021/10/12 06:40:31;;;;;;;24.05;9.38;;;;;;;23.46;54.06;100352.95;1749843;78;21538;-47
2021/10/12 06:42:57;;;;;;;66.12;23.67;;;;;;;23.45;54.11;100347.16;1754709;79;21465;-49
2021/10/12 06:45:23;;;;;;;108.63;36.50;;;;;;;23.44;54.13;100344.72;1756163;79;21081;-46
2021/10/12 06:47:49;;;;;;;114.72;34.55;;;;;;;23.44;54.19;100335.00;1745801;80;21211;-46
2021/10/12 06:50:17;;;;;;;214.60;58.92;;;;;;;23.44;54.21;100335.81;1747251;79;21862;-46
2021/10/12 06:52:43;;;;;;;28.30;7.70;;;;;;;23.42;54.22;100333.95;1758400;79;21028;-49
2021/10/12 06:55:10;;;;;;;13.10;4.97;;;;;;;23.41;54.23;100335.67;1745420;79;20883;-47
2021/10/12 06:57:36;;;;;;;22.32;8.73;;;;;;;23.39;54.21;100332.42;1759739;78;21045;-47
2021/10/12 07:00:06;;;;;;;58.38;18.60;;;;;;;23.37;54.22;100334.17;1762300;79;21496;-47
2021/10/12 07:02:32;;;;;;;25.85;9.33;;;;;;;23.36;54.25;100337.29;1750524;79;21087;-47
2021/10/12 07:04:58;;;;;;;136.40;39.90;;;;;;;23.34;54.27;100347.34;1749692;80;21071;-52
2021/10/12 07:07:25;;;;;;;21.52;8.48;;;;;;;23.33;54.28;100346.32;1761520;79;21197;-47
2021/10/12 07:09:51;;;;;;;15.05;6.80;;;;;;;23.33;54.34;100351.88;1767237;79;21474;-50
2021/10/12 07:12:17;;;;;;;94.92;32.65;;;;;;;23.32;54.36;100356.61;1771611;79;21272;-47
2021/10/12 07:14:43;;;;;;;46.77;18.87;;;;;;;23.32;54.37;100365.52;1754221;78;21051;-47
2021/10/12 07:17:09;;;;;;;11.63;5.15;;;;;;;23.30;54.40;100361.69;1751321;79;22358;-50
2021/10/12 07:19:35;;;;;;;114.90;32.95;;;;;;;23.29;54.39;100361.48;1723623;81;20921;-47
2021/10/12 07:22:01;;;;;;;118.22;42.43;;;;;;;23.27;54.40;100355.45;1697195;82;21082;-47
2021/10/12 07:24:27;;;;;;;93.42;30.60;;;;;;;23.26;54.39;100353.82;1713202;81;21219;-48
2021/10/12 07:26:54;;;;;;;25.37;9.08;;;;;;;23.24;54.43;100347.82;1697692;82;21732;-48
2021/10/12 07:29:21;;;;;;;13.93;6.28;;;;;;;23.23;54.44;100346.19;1702847;82;21097;-49
2021/10/12 07:31:47;;;;;;;8.18;3.98;;;;;;;23.23;54.47;100346.19;1702359;81;21030;-49
2021/10/12 07:34:13;;;;;;;7.05;3.60;;;;;;;23.23;54.47;100335.09;1699245;81;21924;-52
2021/10/12 07:36:39;;;;;;;8.03;3.85;;;;;;;23.23;54.49;100329.55;1692884;82;21094;-49
2021/10/12 07:39:06;;;;;;;7.80;3.22;;;;;;;23.23;54.50;100327.58;1714503;81;20965;-48
2021/10/12 07:41:32;;;;;;;33.88;13.18;;;;;;;23.22;54.50;100325.95;1719077;81;21101;-52
2021/10/12 07:43:58;;;;;;;7.95;3.98;;;;;;;23.22;54.50;100325.14;1695035;81;21542;-48
2021/10/12 07:46:25;;;;;;;7.10;3.83;;;;;;;23.21;54.51;100330.48;1705553;81;21117;-52
2021/10/12 07:48:58;;;;;;;5.22;3.35;;;;;;;23.19;54.53;100324.45;1731156;80;21613;-50
2021/10/12 07:51:22;;;;;;;;;;;;;;;23.18;54.54;100327.80;1743050;80;21706;-48
2021/10/12 07:53:50;;;;;;;7.00;3.58;;;;;;;23.18;54.54;100324.22;1739196;80;20171;-49
2021/10/12 07:56:35;;;;;;;7.75;3.87;;;;;;;23.16;54.54;100320.99;1733884;80;21066;-50
2021/10/12 07:58:48;;;;;;;;;;;;;;;23.16;54.54;100320.42;1735639;80;21070;-51
2021/10/12 08:01:14;;;;;;;8.53;3.25;;;;;;;23.15;54.52;100322.95;1737679;80;21269;-51
2021/10/12 08:03:43;;;;;;;6.33;3.50;;;;;;;23.14;54.49;100320.52;1739247;80;20979;-52
2021/10/12 08:06:08;;;;;;;4.80;3.42;;;;;;;23.13;54.47;100321.66;1737671;80;21232;-52
2021/10/12 08:08:35;;;;;;;4.58;3.10;;;;;;;23.12;54.46;100314.52;1729563;80;20868;-52
2021/10/12 08:11:03;;;;;;;5.72;3.60;;;;;;;23.10;54.46;100309.30;1736557;80;21038;-52
2021/10/12 08:13:29;;;;;;;6.12;3.72;;;;;;;23.09;54.45;100308.25;1736340;80;21148;-50
2021/10/12 08:16:01;;;;;;;6.70;3.35;;;;;;;23.09;54.46;100304.91;1732046;80;21096;-49
2021/10/12 08:18:24;;;;;;;5.72;3.80;;;;;;;23.10;54.45;100304.33;1729314;81;21046;-48
2021/10/12 08:20:50;;;;;;;5.70;3.72;;;;;;;23.10;54.43;100302.94;1766265;79;21080;-51
2021/10/12 08:23:16;;;;;;;6.28;3.77;;;;;;;23.09;54.40;100301.31;1755056;79;20917;-48
2021/10/12 08:25:43;;;;;;;5.08;3.05;;;;;;;23.09;54.37;100304.91;1753617;79;22101;-52
2021/10/12 08:28:09;;;;;;;6.17;3.55;;;;;;;23.08;54.35;100296.38;1765003;79;20893;-50
2021/10/12 08:30:35;;;;;;;4.97;3.27;;;;;;;23.08;54.33;100299.72;1748335;80;21523;-49
2021/10/12 08:33:01;;;;;;;6.78;3.92;;;;;;;23.07;54.29;100298.09;1749053;80;20935;-51
2021/10/12 08:35:27;;;;;;;5.42;3.37;;;;;;;23.03;54.29;100296.59;1754780;79;20974;-51
2021/10/12 08:37:54;;;;;;;5.58;3.65;;;;;;;23.05;54.29;100293.45;1754625;79;22039;-47
2021/10/12 08:40:20;;;;;;;5.75;3.37;;;;;;;23.05;54.29;100292.88;1761396;79;21202;-49
2021/10/12 08:42:53;;;;;;;5.58;3.67;;;;;;;23.05;54.26;100293.45;1748995;80;21121;-51
2021/10/12 08:45:21;;;;;;;7.50;3.45;;;;;;;23.05;54.22;100293.45;1762845;79;21043;-49
2021/10/12 08:47:48;;;;;;;5.58;3.30;;;;;;;23.04;54.20;100294.03;1751673;78;21117;-51
2021/10/12 08:50:20;;;;;;;6.67;3.47;;;;;;;23.04;54.17;100291.86;1748496;80;21367;-48
2021/10/12 08:52:46;;;;;;;5.55;3.20;;;;;;;23.03;54.14;100290.23;1744089;80;21074;-48
2021/10/12 08:55:13;;;;;;;5.33;3.15;;;;;;;23.00;54.12;100288.94;1751767;79;21114;-49
2021/10/12 08:57:42;;;;;;;6.40;3.42;;;;;;;23.00;54.11;100286.77;1754177;79;21173;-48
2021/10/12 09:00:19;;;;;;;5.67;3.35;;;;;;;22.99;54.10;100285.95;1760771;79;21055;-53
2021/10/12 09:05:55;;;;;;;7.12;3.77;;;;;;;23.00;54.05;100288.16;1750159;78;20985;-52
2021/10/12 09:08:29;;;;;;;5.58;3.50;;;;;;;23.00;54.02;100284.78;1756308;80;21180;-50
2021/10/12 09:10:57;;;;;;;6.87;3.45;;;;;;;22.99;53.97;100285.14;1753962;79;21018;-51
2021/10/12 09:13:23;;;;;;;6.00;3.60;;;;;;;22.98;53.96;100280.74;1757752;79;21037;-51
2021/10/12 09:16:11;;;;;;;5.53;3.75;;;;;;;22.97;53.94;100281.31;1760231;78;21370;-48
2021/10/12 09:18:55;;;;;;;4.72;3.25;;;;;;;22.96;53.92;100283.85;1749416;80;20984;-47
2021/10/12 09:21:28;;;;;;;4.33;3.40;;;;;;;22.94;53.87;100283.41;1757171;79;21000;-50
2021/10/12 09:24:11;;;;;;;4.42;3.25;;;;;;;22.93;53.89;100280.39;1742104;80;21046;-48
2021/10/12 09:26:55;;;;;;;5.42;3.47;;;;;;;22.92;53.88;100282.11;1759210;79;21755;-49
2021/10/12 09:29:25;;;;;;;5.60;3.37;;;;;;;22.92;53.88;100280.73;1741458;79;21163;-50
2021/10/12 09:31:53;;;;;;;4.57;3.13;;;;;;;22.91;53.85;100277.17;1754798;79;20994;-53
2021/10/12 09:34:19;;;;;;;3.50;2.98;;;;;;;22.91;53.84;100278.56;1741483;80;21124;-53
2021/10/12 09:36:48;;;;;;;6.15;3.02;;;;;;;22.91;53.80;100273.59;1756139;80;21125;-49
2021/10/12 09:39:18;;;;;;;5.83;3.12;;;;;;;22.90;53.80;100274.16;1758480;79;21105;-48
2021/10/12 09:41:45;;;;;;;4.08;2.77;;;;;;;22.89;53.78;100277.27;1757141;79;21623;-51
2021/10/12 09:44:16;;;;;;;6.10;3.15;;;;;;;22.89;53.77;100277.27;1758115;79;21061;-48
2021/10/12 09:46:46;;;;;;;6.05;3.30;;;;;;;22.88;53.77;100279.80;1754504;79;21111;-47
2021/10/12 09:49:22;;;;;;;4.37;3.27;;;;;;;22.87;53.78;100281.80;1759804;79;21022;-47
2021/10/12 09:52:13;;;;;;;4.03;2.95;;;;;;;22.87;53.75;100280.41;1761231;78;21070;-48
2021/10/12 09:54:49;;;;;;;4.25;3.12;;;;;;;22.87;53.74;100279.02;1747577;80;22111;-50
2021/10/12 09:57:17;;;;;;;4.22;3.15;;;;;;;22.87;53.72;100277.63;1745677;79;21085;-48
2021/10/12 09:59:43;;;;;;;5.42;3.12;;;;;;;22.86;53.71;100277.39;1752576;79;21027;-49
2021/10/12 10:02:23;;;;;;;4.12;2.77;;;;;;;22.85;53.69;100274.95;1757617;79;21357;-50
2021/10/12 10:04:51;;;;;;;5.00;3.58;;;;;;;22.83;53.66;100268.36;1755908;79;21152;-50
2021/10/12 10:07:40;;;;;;;6.05;3.30;;;;;;;22.83;53.66;100266.97;1765003;79;22144;-52
2021/10/12 10:10:08;;;;;;;4.87;3.17;;;;;;;22.82;53.65;100263.98;1757730;79;21585;-48
2021/10/12 10:12:34;;;;;;;5.78;3.22;;;;;;;22.82;53.65;100263.17;1749141;80;21048;-51
2021/10/12 10:15:01;;;;;;;5.53;3.25;;;;;;;22.81;53.65;100260.97;1752747;79;21396;-50
2021/10/12 10:17:27;;;;;;;4.45;3.15;;;;;;;22.82;53.62;100261.78;1754535;79;21114;-49
2021/10/12 10:19:53;;;;;;;3.55;2.55;;;;;;;22.82;53.61;100256.23;1757363;79;21559;-52
2021/10/12 10:22:51;;;;;;;3.90;2.92;;;;;;;22.81;53.58;100251.27;1758639;79;20917;-52
2021/10/12 10:25:37;;;;;;;4.00;2.98;;;;;;;22.80;53.58;100253.80;1754920;78;21053;-50
2021/10/12 10:28:24;;;;;;;4.97;3.22;;;;;;;22.78;53.58;100244.22;1748769;79;21611;-50
2021/10/12 10:30:57;;;;;;;4.00;2.92;;;;;;;22.78;53.58;100257.52;1757881;79;21013;-51
2021/10/12 10:33:32;;;;;;;5.33;3.45;;;;;;;22.75;53.59;100246.52;1754170;79;21198;-52
2021/10/12 10:36:10;;;;;;;4.22;2.98;;;;;;;22.75;53.57;100246.52;1756589;79;21625;-49
2021/10/12 10:38:46;;;;;;;4.03;2.92;;;;;;;22.75;53.58;100250.67;1747042;79;32464;-50
2021/10/12 10:41:19;;;;;;;4.53;3.20;;;;;;;22.75;53.57;100246.52;1762547;79;21128;-52
2021/10/12 10:44:00;;;;;;;5.12;3.02;;;;;;;22.75;53.54;100242.92;1755976;79;20981;-52
2021/10/12 10:46:37;;;;;;;4.35;3.10;;;;;;;22.75;53.55;100241.55;1754176;79;20978;-53
2021/10/12 10:49:13;;;;;;;4.12;2.87;;;;;;;22.74;53.52;100237.17;1758495;79;21120;-51
2021/10/12 10:52:04;;;;;;;4.75;3.08;;;;;;;22.73;53.51;100232.77;1758049;79;21046;-52
2021/10/12 10:54:48;;;;;;;4.03;3.00;;;;;;;22.71;53.54;100229.52;1752420;79;21112;-48
2021/10/12 10:57:19;;;;;;;4.50;3.10;;;;;;;22.71;53.52;100222.59;1753765;79;21152;-51
2021/10/12 10:59:45;;;;;;;;;;;;;;;22.70;53.52;100219.00;1758252;79;21373;-50
2021/10/12 11:02:33;;;;;;;5.75;2.77;;;;;;;22.70;53.51;100217.62;1755925;79;20430;-47
2021/10/12 11:05:00;;;;;;;4.50;3.10;;;;;;;22.67;53.51;100207.77;1705843;81;21115;-50
2021/10/12 11:07:27;;;;;;;4.90;3.00;;;;;;;22.67;53.52;100204.42;1709803;82;21120;-48
2021/10/12 11:09:53;;;;;;;4.72;2.85;;;;;;;22.66;53.50;100197.25;1714377;81;21054;-50
2021/10/12 11:12:26;;;;;;;4.30;2.87;;;;;;;22.66;53.50;100189.53;1718400;81;21058;-46
2021/10/12 11:14:54;;;;;;;4.87;3.00;;;;;;;22.65;53.50;100184.56;1713427;81;21104;-54
2021/10/12 11:17:20;;;;;;;3.50;2.83;;;;;;;22.66;53.52;100181.22;1743422;80;21581;-48
2021/10/12 11:20:00;;;;;;;4.15;3.15;;;;;;;22.65;53.51;100180.41;1691647;82;22102;-50
2021/10/12 11:22:28;;;;;;;5.72;3.42;;;;;;;22.67;53.50;100184.20;1693517;82;21607;-47
2021/10/12 11:24:54;;;;;;;5.12;3.25;;;;;;;22.68;53.49;100179.70;1713745;81;21268;-50
2021/10/12 11:27:21;;;;;;;4.08;2.87;;;;;;;22.68;53.49;100177.50;1758004;78;21037;-47
2021/10/12 11:30:10;;;;;;;4.95;3.27;;;;;;;22.67;53.47;100175.87;1756440;79;21351;-50